Concord, Minnesota
Current Conditions -  °F | °C
As of 4:34 AM on Friday 24 Oct 2014 (Local Time) from KTOB Reporting Station
Clear Clear  
Wind Chill: 40°   Ceiling: Unl
Heat Index: 45°   Visibility: 7mi
Dew Point: 45°   Wind: 8mph
Humidity: 100%   Direction: 160°SSE
Pressure: 29.96"   Gusts: NA
Location:  44.1528°N, 92.8919°W
Report Text: KTOB 240934Z AUTO 16007KT 7SM CLR 07/07 A2996 RMK AO2
Loading
Personal Weather Stations






























Interactive Weather Map
Tropical Storm Tracking
New forecast layout! Learn more

10-Day Weather Forecast

Advertisements
Track Severe Weather on mobile